createdAt,value
2018-01-16T00:00:47.343Z,0
2018-01-16T00:01:47.611Z,0
2018-01-16T00:02:47.585Z,0
2018-01-16T00:03:47.574Z,0
2018-01-16T00:04:47.266Z,0
2018-01-16T00:05:47.602Z,0
2018-01-16T00:06:46.980Z,0
2018-01-16T00:07:47.212Z,0
2018-01-16T00:08:46.938Z,0
2018-01-16T00:09:47.174Z,0
2018-01-16T00:10:46.916Z,0
2018-01-16T00:11:46.873Z,0
2018-01-16T00:12:46.847Z,0
2018-01-16T00:13:47.126Z,0
2018-01-16T00:14:47.457Z,0
2018-01-16T00:15:47.346Z,0
2018-01-16T00:16:46.790Z,0
2018-01-16T00:17:47.501Z,0
2018-01-16T00:18:47.372Z,0
2018-01-16T00:19:47.277Z,0
2018-01-16T00:20:47.284Z,0
2018-01-16T00:21:46.951Z,0
2018-01-16T00:22:47.213Z,0
2018-01-16T00:23:47.462Z,0
2018-01-16T00:24:47.197Z,0
2018-01-16T00:25:46.883Z,0
2018-01-16T00:26:47.445Z,0
2018-01-16T00:27:47.151Z,0
2018-01-16T00:28:46.829Z,0
2018-01-16T00:29:46.539Z,0
2018-01-16T00:30:47.350Z,0
2018-01-16T00:31:47.042Z,0
2018-01-16T00:32:46.756Z,0
2018-01-16T00:33:47.008Z,0
2018-01-16T00:34:46.734Z,0
2018-01-16T00:35:47.242Z,0
2018-01-16T00:36:46.952Z,0
2018-01-16T00:37:46.394Z,0
2018-01-16T00:38:46.922Z,0
2018-01-16T00:39:46.903Z,0
2018-01-16T00:40:46.482Z,0
2018-01-16T00:41:48.847Z,0
2018-01-16T00:42:47.364Z,0
2018-01-16T00:43:46.862Z,0
2018-01-16T00:44:46.265Z,0
2018-01-16T00:45:47.074Z,0
2018-01-16T00:46:47.052Z,0
2018-01-16T00:47:46.211Z,0
2018-01-16T00:48:46.747Z,0
2018-01-16T00:49:46.468Z,0
2018-01-16T00:50:46.700Z,0
2018-01-16T00:51:46.409Z,0
2018-01-16T00:52:46.936Z,0
2018-01-16T00:53:46.372Z,0
2018-01-16T00:54:46.925Z,0
2018-01-16T00:55:46.349Z,0
2018-01-16T00:56:46.319Z,0
2018-01-16T00:57:46.641Z,0
2018-01-16T00:58:46.287Z,0
2018-01-16T00:59:46.502Z,0
2018-01-16T01:00:46.542Z,0
2018-01-16T01:01:47.132Z,0
2018-01-16T01:02:46.620Z,0
2018-01-16T01:03:46.616Z,0
2018-01-16T01:04:46.339Z,0
2018-01-16T01:05:47.161Z,0
2018-01-16T01:06:46.281Z,0
2018-01-16T01:07:46.477Z,0
2018-01-16T01:08:46.754Z,0
2018-01-16T01:09:46.053Z,0
2018-01-16T01:10:45.793Z,0
2018-01-16T01:11:46.069Z,0
2018-01-16T01:12:46.542Z,0
2018-01-16T01:13:46.340Z,0
2018-01-16T01:14:46.399Z,0
2018-01-16T01:15:46.506Z,0
2018-01-16T01:16:47.016Z,0
2018-01-16T01:17:46.870Z,0
2018-01-16T01:18:46.550Z,0
2018-01-16T01:19:45.722Z,0
2018-01-16T01:20:45.904Z,0
2018-01-16T01:21:45.597Z,0
2018-01-16T01:22:46.154Z,0
2018-01-16T01:23:46.254Z,0
2018-01-16T01:24:46.757Z,0
2018-01-16T01:25:46.209Z,0
2018-01-16T01:26:46.912Z,0
2018-01-16T01:27:46.530Z,0
2018-01-16T01:28:46.002Z,0
2018-01-16T01:29:45.898Z,0
2018-01-16T01:30:45.433Z,0
2018-01-16T01:31:45.690Z,0
2018-01-16T01:32:45.418Z,0
2018-01-16T01:33:45.676Z,0
2018-01-16T01:34:45.359Z,0
2018-01-16T01:35:45.886Z,0
2018-01-16T01:36:46.030Z,0
2018-01-16T01:37:45.693Z,0
2018-01-16T01:38:46.019Z,0
2018-01-16T01:39:45.964Z,0
2018-01-16T01:40:45.899Z,0
2018-01-16T01:41:46.163Z,0
2018-01-16T01:42:45.520Z,0
2018-01-16T01:43:45.546Z,0
2018-01-16T01:44:45.906Z,0
2018-01-16T01:45:45.980Z,0
2018-01-16T01:46:46.059Z,0
2018-01-16T01:47:45.443Z,0
2018-01-16T01:48:45.783Z,0
2018-01-16T01:49:45.994Z,0
2018-01-16T01:50:45.559Z,0
2018-01-16T01:51:45.470Z,0
2018-01-16T01:52:45.926Z,0
2018-01-16T01:53:45.436Z,0
2018-01-16T01:54:45.817Z,0
2018-01-16T01:55:45.577Z,0
2018-01-16T01:56:45.298Z,0
2018-01-16T01:57:46.071Z,0
2018-01-16T01:58:45.572Z,0
2018-01-16T01:59:46.028Z,0
2018-01-16T02:00:45.609Z,0
2018-01-16T02:01:45.656Z,0
2018-01-16T02:02:45.410Z,0
2018-01-16T02:03:45.386Z,0
2018-01-16T02:04:45.117Z,0
2018-01-16T02:05:45.289Z,0
2018-01-16T02:06:45.061Z,0
2018-01-16T02:07:45.181Z,0
2018-01-16T02:08:45.363Z,0
2018-01-16T02:09:45.174Z,0
2018-01-16T02:10:44.989Z,0
2018-01-16T02:11:44.976Z,0
2018-01-16T02:12:45.027Z,0
2018-01-16T02:13:45.232Z,0
2018-01-16T02:14:45.216Z,0
2018-01-16T02:15:45.093Z,0
2018-01-16T02:16:45.283Z,0
2018-01-16T02:17:45.398Z,0
2018-01-16T02:18:44.778Z,0
2018-01-16T02:19:44.887Z,0
2018-01-16T02:20:44.648Z,0
2018-01-16T02:21:45.066Z,0
2018-01-16T02:22:45.115Z,0
2018-01-16T02:23:44.983Z,0
2018-01-16T02:24:45.113Z,0
2018-01-16T02:25:44.977Z,0
2018-01-16T02:26:44.954Z,0
2018-01-16T02:27:44.414Z,0
2018-01-16T02:28:44.956Z,0
2018-01-16T02:29:44.667Z,0
2018-01-16T02:30:44.662Z,0
2018-01-16T02:31:44.368Z,0
2018-01-16T02:32:44.324Z,0
2018-01-16T02:33:44.307Z,0
2018-01-16T02:34:44.563Z,0
2018-01-16T02:35:44.296Z,0
2018-01-16T02:36:44.528Z,0
2018-01-16T02:37:44.242Z,0
2018-01-16T02:38:44.531Z,0
2018-01-16T02:39:44.222Z,0
2018-01-16T02:40:45.277Z,0
2018-01-16T02:41:44.449Z,0
2018-01-16T02:42:44.965Z,0
2018-01-16T02:43:44.728Z,0
2018-01-16T02:44:44.711Z,0
2018-01-16T02:45:44.638Z,0
2018-01-16T02:46:44.627Z,0
2018-01-16T02:47:44.598Z,0
2018-01-16T02:48:44.312Z,0
2018-01-16T02:49:44.031Z,0
2018-01-16T02:50:44.011Z,0
2018-01-16T02:51:44.263Z,0
2018-01-16T02:52:44.254Z,0
2018-01-16T02:53:43.950Z,0
2018-01-16T02:54:43.935Z,0
2018-01-16T02:55:44.202Z,0
2018-01-16T02:56:43.922Z,0
2018-01-16T02:57:44.428Z,0
2018-01-16T02:58:44.133Z,0
2018-01-16T02:59:44.387Z,0
2018-01-16T03:00:43.826Z,0
2018-01-16T03:01:43.826Z,0
2018-01-16T03:02:44.064Z,0
2018-01-16T03:03:44.043Z,0
2018-01-16T03:04:44.299Z,0
2018-01-16T03:05:44.007Z,0
2018-01-16T03:06:49.357Z,0
2018-01-16T03:07:44.246Z,0
2018-01-16T03:08:44.229Z,0
2018-01-16T03:09:44.209Z,0
2018-01-16T03:10:43.920Z,0
2018-01-16T03:11:43.902Z,0
2018-01-16T03:12:43.909Z,0
2018-01-16T03:13:43.877Z,0
2018-01-16T03:14:43.846Z,0
2018-01-16T03:15:44.109Z,0
2018-01-16T03:16:44.364Z,0
2018-01-16T03:17:44.069Z,0
2018-01-16T03:18:43.796Z,0
2018-01-16T03:19:43.500Z,0
2018-01-16T03:20:43.468Z,0
2018-01-16T03:21:43.996Z,0
2018-01-16T03:22:43.443Z,0
2018-01-16T03:23:44.245Z,0
2018-01-16T03:24:43.674Z,0
2018-01-16T03:25:43.928Z,0
2018-01-16T03:26:43.637Z,0
2018-01-16T03:27:43.627Z,0
2018-01-16T03:28:43.601Z,0
2018-01-16T03:29:43.870Z,0
2018-01-16T03:30:43.577Z,0
2018-01-16T03:31:44.398Z,0
2018-01-16T03:32:43.806Z,0
2018-01-16T03:33:43.832Z,0
2018-01-16T03:34:43.499Z,0
2018-01-16T03:35:43.477Z,0
2018-01-16T03:36:43.731Z,0
2018-01-16T03:37:43.193Z,0
2018-01-16T03:38:43.169Z,0
2018-01-16T03:39:43.682Z,0
2018-01-16T03:40:44.255Z,0
2018-01-16T03:41:43.101Z,0
2018-01-16T03:42:43.359Z,0
2018-01-16T03:43:43.608Z,0
2018-01-16T03:44:43.908Z,0
2018-01-16T03:45:43.588Z,0
2018-01-16T03:46:43.845Z,0
2018-01-16T03:47:42.996Z,0
2018-01-16T03:48:43.268Z,0
2018-01-16T03:49:43.228Z,0
2018-01-16T03:50:42.972Z,0
2018-01-16T03:51:43.489Z,0
2018-01-16T03:52:43.455Z,0
2018-01-16T03:53:42.927Z,0
2018-01-16T03:54:43.145Z,0
2018-01-16T03:55:43.140Z,0
2018-01-16T03:56:43.134Z,0
2018-01-16T03:57:42.822Z,0
2018-01-16T03:58:43.073Z,0
2018-01-16T03:59:43.332Z,0
2018-01-16T04:00:43.312Z,0
2018-01-16T04:01:43.025Z,0
2018-01-16T04:02:43.304Z,0
2018-01-16T04:03:42.993Z,0
2018-01-16T04:04:43.242Z,0
2018-01-16T04:05:42.958Z,0
2018-01-16T04:06:43.492Z,0
2018-01-16T04:07:43.196Z,0
2018-01-16T04:08:43.191Z,0
2018-01-16T04:09:43.177Z,0
2018-01-16T04:10:43.141Z,0
2018-01-16T04:11:43.141Z,0
2018-01-16T04:12:42.830Z,0
2018-01-16T04:13:42.568Z,0
2018-01-16T04:14:43.078Z,0
2018-01-16T04:15:42.780Z,0
2018-01-16T04:16:42.494Z,0
2018-01-16T04:17:43.038Z,0
2018-01-16T04:18:43.029Z,0
2018-01-16T04:19:43.256Z,0
2018-01-16T04:20:42.432Z,0
2018-01-16T04:21:42.484Z,0
2018-01-16T04:22:42.954Z,0
2018-01-16T04:23:42.929Z,0
2018-01-16T04:24:42.632Z,0
2018-01-16T04:25:42.610Z,0
2018-01-16T04:26:42.602Z,0
2018-01-16T04:27:43.113Z,0
2018-01-16T04:28:42.844Z,0
2018-01-16T04:29:43.090Z,0
2018-01-16T04:30:42.790Z,0
2018-01-16T04:31:42.506Z,0
2018-01-16T04:32:42.218Z,0
2018-01-16T04:33:42.749Z,0
2018-01-16T04:34:42.992Z,0
2018-01-16T04:35:42.716Z,0
2018-01-16T04:36:42.165Z,0
2018-01-16T04:37:42.419Z,0
2018-01-16T04:38:42.389Z,0
2018-01-16T04:39:42.641Z,0
2018-01-16T04:40:42.618Z,0
2018-01-16T04:41:42.355Z,0
2018-01-16T04:42:42.603Z,0
2018-01-16T04:43:42.307Z,0
2018-01-16T04:44:42.288Z,0
2018-01-16T04:45:42.265Z,0
2018-01-16T04:46:42.251Z,0
2018-01-16T04:47:41.962Z,0
2018-01-16T04:48:42.489Z,0
2018-01-16T04:49:42.201Z,0
2018-01-16T04:50:41.925Z,0
2018-01-16T04:51:42.191Z,0
2018-01-16T04:52:42.144Z,0
2018-01-16T04:53:42.127Z,0
2018-01-16T04:54:42.388Z,0
2018-01-16T04:55:41.881Z,0
2018-01-16T04:56:42.097Z,0
2018-01-16T04:57:42.080Z,0
2018-01-16T04:58:42.052Z,0
2018-01-16T04:59:42.031Z,0
2018-01-16T05:00:42.010Z,0
2018-01-16T05:01:42.003Z,0
2018-01-16T05:02:41.703Z,0
2018-01-16T05:03:41.986Z,0
2018-01-16T05:04:41.942Z,0
2018-01-16T05:05:41.940Z,0
2018-01-16T05:06:41.905Z,0
2018-01-16T05:07:42.448Z,0
2018-01-16T05:08:41.870Z,0
2018-01-16T05:09:42.177Z,0
2018-01-16T05:10:42.385Z,0
2018-01-16T05:11:41.551Z,0
2018-01-16T05:12:41.803Z,0
2018-01-16T05:13:41.818Z,0
2018-01-16T05:14:41.769Z,0
2018-01-16T05:15:42.024Z,0
2018-01-16T05:16:41.467Z,0
2018-01-16T05:17:41.717Z,0
2018-01-16T05:18:42.020Z,0
2018-01-16T05:19:41.738Z,0
2018-01-16T05:20:41.405Z,0
2018-01-16T05:21:42.203Z,0
2018-01-16T05:22:42.186Z,0
2018-01-16T05:23:41.349Z,0
2018-01-16T05:24:41.332Z,0
2018-01-16T05:25:41.855Z,0
2018-01-16T05:26:41.292Z,0
2018-01-16T05:27:42.112Z,0
2018-01-16T05:28:41.798Z,0
2018-01-16T05:29:41.800Z,0
2018-01-16T05:30:41.520Z,0
2018-01-16T05:31:42.028Z,0
2018-01-16T05:32:41.735Z,0
2018-01-16T05:33:41.451Z,0
2018-01-16T05:34:41.992Z,0
2018-01-16T05:35:41.697Z,0
2018-01-16T05:36:41.949Z,0
2018-01-16T05:37:41.962Z,0
2018-01-16T05:38:41.364Z,0
2018-01-16T05:39:41.637Z,0
2018-01-16T05:40:41.333Z,0
2018-01-16T05:41:41.856Z,0
2018-01-16T05:42:41.309Z,0
2018-01-16T05:43:41.274Z,0
2018-01-16T05:44:40.991Z,0
2018-01-16T05:45:41.513Z,0
2018-01-16T05:46:41.515Z,0
2018-01-16T05:47:41.487Z,0
2018-01-16T05:48:41.483Z,0
2018-01-16T05:49:41.727Z,0
2018-01-16T05:50:41.176Z,0
2018-01-16T05:51:41.146Z,0
2018-01-16T05:52:41.435Z,0
2018-01-16T05:53:41.391Z,0
2018-01-16T05:54:41.087Z,0
2018-01-16T05:55:41.350Z,0
2018-01-16T05:56:41.345Z,0
2018-01-16T05:57:41.582Z,0
2018-01-16T05:58:41.295Z,0
2018-01-16T05:59:41.283Z,0
2018-01-16T06:00:41.279Z,0
2018-01-16T06:01:40.973Z,0
2018-01-16T06:02:40.696Z,0
2018-01-16T06:03:41.210Z,0
2018-01-16T06:04:41.484Z,0
2018-01-16T06:05:41.192Z,0
2018-01-16T06:06:40.893Z,0
2018-01-16T06:07:40.890Z,0
2018-01-16T06:08:40.586Z,0
2018-01-16T06:09:40.568Z,0
2018-01-16T06:10:41.157Z,0
2018-01-16T06:11:40.548Z,0
2018-01-16T06:12:40.799Z,0
2018-01-16T06:13:40.774Z,0
2018-01-16T06:14:40.980Z,0
2018-01-16T06:15:40.746Z,0
2018-01-16T06:16:41.268Z,0
2018-01-16T06:17:40.977Z,0
2018-01-16T06:18:40.696Z,0
2018-01-16T06:19:40.426Z,0
2018-01-16T06:20:40.657Z,0
2018-01-16T06:21:40.912Z,0
2018-01-16T06:22:40.648Z,0
2018-01-16T06:23:40.343Z,0
2018-01-16T06:24:40.588Z,0
2018-01-16T06:25:40.591Z,0
2018-01-16T06:26:40.298Z,0
2018-01-16T06:27:40.817Z,0
2018-01-16T06:28:40.254Z,0
2018-01-16T06:29:40.509Z,0
2018-01-16T06:30:40.783Z,0
2018-01-16T06:31:40.493Z,0
2018-01-16T06:32:40.458Z,0
2018-01-16T06:33:40.451Z,0
2018-01-16T06:34:40.426Z,0
2018-01-16T06:35:40.416Z,0
2018-01-16T06:36:40.426Z,0
2018-01-16T06:37:40.391Z,0
2018-01-16T06:38:40.098Z,0
2018-01-16T06:39:40.545Z,0
2018-01-16T06:40:40.073Z,0
2018-01-16T06:41:41.103Z,0
2018-01-16T06:42:40.024Z,0
2018-01-16T06:43:40.274Z,0
2018-01-16T06:44:39.990Z,0
2018-01-16T06:45:40.515Z,0
2018-01-16T06:46:40.500Z,0
2018-01-16T06:47:39.944Z,0
2018-01-16T06:48:40.470Z,0
2018-01-16T06:49:40.216Z,0
2018-01-16T06:50:40.178Z,0
2018-01-16T06:51:40.170Z,0
2018-01-16T06:52:40.693Z,0
2018-01-16T06:53:40.117Z,0
2018-01-16T06:54:39.823Z,0
2018-01-16T06:55:39.806Z,0
2018-01-16T06:56:40.060Z,0
2018-01-16T06:57:40.364Z,0
2018-01-16T06:58:40.570Z,0
2018-01-16T06:59:39.760Z,0
2018-01-16T07:00:39.991Z,0
2018-01-16T07:01:39.718Z,0
2018-01-16T07:02:40.256Z,5
2018-01-16T07:03:39.958Z,5
2018-01-16T07:04:39.653Z,5
2018-01-16T07:05:39.912Z,5
2018-01-16T07:06:39.620Z,5
2018-01-16T07:07:39.875Z,5
2018-01-16T07:08:40.140Z,5
2018-01-16T07:09:40.386Z,5
2018-01-16T07:10:39.827Z,5
2018-01-16T07:11:39.539Z,5
2018-01-16T07:12:39.797Z,5
2018-01-16T07:13:39.779Z,5
2018-01-16T07:14:39.758Z,10
2018-01-16T07:15:39.744Z,10
2018-01-16T07:16:40.299Z,10
2018-01-16T07:17:39.722Z,10
2018-01-16T07:18:39.985Z,10
2018-01-16T07:19:39.406Z,10
2018-01-16T07:20:39.394Z,10
2018-01-16T07:21:40.186Z,10
2018-01-16T07:22:39.936Z,10
2018-01-16T07:23:39.612Z,10
2018-01-16T07:24:39.317Z,15
2018-01-16T07:25:40.131Z,15
2018-01-16T07:26:39.564Z,20
2018-01-16T07:27:40.099Z,25
2018-01-16T07:28:40.070Z,25
2018-01-16T07:29:39.797Z,25
2018-01-16T07:30:39.493Z,25
2018-01-16T07:31:39.204Z,25
2018-01-16T07:32:39.731Z,25
2018-01-16T07:33:39.456Z,20
2018-01-16T07:34:39.462Z,20
2018-01-16T07:35:39.149Z,20
2018-01-16T07:36:39.407Z,20
2018-01-16T07:37:39.109Z,20
2018-01-16T07:38:39.097Z,20
2018-01-16T07:39:39.344Z,25
2018-01-16T07:40:39.368Z,30
2018-01-16T07:41:39.044Z,35
2018-01-16T07:42:39.027Z,40
2018-01-16T07:43:40.094Z,40
2018-01-16T07:44:39.531Z,45
2018-01-16T07:45:39.274Z,50
2018-01-16T07:46:39.527Z,55
2018-01-16T07:47:39.387Z,50
2018-01-16T07:48:39.239Z,55
2018-01-16T07:49:39.228Z,65
2018-01-16T07:50:39.475Z,65
2018-01-16T07:51:39.209Z,65
2018-01-16T07:52:38.957Z,65
2018-01-16T07:53:39.653Z,65
2018-01-16T07:54:39.156Z,55
2018-01-16T07:55:39.351Z,45
2018-01-16T07:56:39.340Z,45
2018-01-16T07:57:38.776Z,50
2018-01-16T07:58:39.301Z,60
2018-01-16T07:59:39.013Z,60
2018-01-16T08:00:39.275Z,60
2018-01-16T08:01:39.003Z,60
2018-01-16T08:02:38.972Z,50
2018-01-16T08:03:38.699Z,50
2018-01-16T08:04:38.979Z,50
2018-01-16T08:05:38.917Z,50
2018-01-16T08:06:39.167Z,55
2018-01-16T08:07:39.449Z,60
2018-01-16T08:08:39.156Z,60
2018-01-16T08:09:38.576Z,55
2018-01-16T08:10:38.864Z,50
2018-01-16T08:11:39.105Z,55
2018-01-16T08:12:38.821Z,60
2018-01-16T08:13:39.079Z,65
2018-01-16T08:14:38.772Z,70
2018-01-16T08:15:39.312Z,75
2018-01-16T08:16:39.041Z,75
2018-01-16T08:17:38.988Z,75
2018-01-16T08:18:38.730Z,70
2018-01-16T08:19:38.684Z,70
2018-01-16T08:20:38.940Z,70
2018-01-16T08:21:38.923Z,65
2018-01-16T08:22:38.950Z,60
2018-01-16T08:23:38.624Z,55
2018-01-16T08:24:38.605Z,55
2018-01-16T08:25:38.321Z,45
2018-01-16T08:26:39.143Z,45
2018-01-16T08:27:38.562Z,40
2018-01-16T08:28:38.866Z,40
2018-01-16T08:29:38.524Z,35
2018-01-16T08:30:38.522Z,25
2018-01-16T08:31:39.038Z,20
2018-01-16T08:32:38.498Z,15
2018-01-16T08:33:38.463Z,15
2018-01-16T08:34:38.443Z,20
2018-01-16T08:35:38.838Z,20
2018-01-16T08:36:38.932Z,20
2018-01-16T08:37:39.071Z,25
2018-01-16T08:38:38.501Z,35
2018-01-16T08:39:38.414Z,35
2018-01-16T08:40:38.441Z,30
2018-01-16T08:41:38.357Z,25
2018-01-16T08:42:38.605Z,30
2018-01-16T08:43:38.865Z,30
2018-01-16T08:44:38.567Z,30
2018-01-16T08:45:38.539Z,25
2018-01-16T08:46:39.061Z,25
2018-01-16T08:47:37.961Z,20
2018-01-16T08:48:38.256Z,20
2018-01-16T08:49:38.741Z,15
2018-01-16T08:50:37.918Z,15
2018-01-16T08:51:38.457Z,15
2018-01-16T08:52:38.426Z,15
2018-01-16T08:53:38.701Z,15
2018-01-16T08:54:38.395Z,20
2018-01-16T08:55:37.832Z,30
2018-01-16T08:56:38.638Z,40
2018-01-16T08:57:38.408Z,40
2018-01-16T08:58:38.058Z,40
2018-01-16T08:59:38.315Z,35
2018-01-16T09:00:38.015Z,30
2018-01-16T09:01:38.296Z,30
2018-01-16T09:02:37.996Z,35
2018-01-16T09:03:37.727Z,40
2018-01-16T09:04:37.980Z,40
2018-01-16T09:05:38.486Z,45
2018-01-16T09:06:37.663Z,60
2018-01-16T09:07:37.905Z,60
2018-01-16T09:08:37.620Z,55
2018-01-16T09:09:38.186Z,50
2018-01-16T09:10:38.410Z,45
2018-01-16T09:11:38.112Z,45
2018-01-16T09:12:39.809Z,50
2018-01-16T09:13:38.579Z,60
2018-01-16T09:14:37.835Z,75
2018-01-16T09:15:38.649Z,75
2018-01-16T09:16:37.729Z,85
2018-01-16T09:17:38.018Z,95
2018-01-16T09:18:37.725Z,100
2018-01-16T09:19:37.920Z,95
2018-01-16T09:20:37.695Z,85
2018-01-16T09:21:37.702Z,75
2018-01-16T09:22:38.220Z,60
2018-01-16T09:23:37.370Z,55
2018-01-16T09:24:37.896Z,45
2018-01-16T09:25:37.354Z,50
2018-01-16T09:26:37.644Z,55
2018-01-16T09:27:37.584Z,55
2018-01-16T09:28:37.941Z,55
2018-01-16T09:29:38.102Z,60
2018-01-16T09:30:37.258Z,75
2018-01-16T09:31:37.811Z,85
2018-01-16T09:32:37.222Z,95
2018-01-16T09:33:38.031Z,100
2018-01-16T09:34:37.198Z,95
2018-01-16T09:35:37.192Z,90
2018-01-16T09:36:37.434Z,85
2018-01-16T09:37:37.441Z,80
2018-01-16T09:38:37.398Z,80
2018-01-16T09:39:37.725Z,80
2018-01-16T09:40:37.099Z,75
2018-01-16T09:41:37.635Z,80
2018-01-16T09:42:37.331Z,75
2018-01-16T09:43:37.324Z,85
2018-01-16T09:44:37.020Z,85
2018-01-16T09:45:37.551Z,85
2018-01-16T09:46:37.274Z,85
2018-01-16T09:47:38.063Z,85
2018-01-16T09:48:37.229Z,90
2018-01-16T09:49:37.224Z,90
2018-01-16T09:50:37.483Z,95
2018-01-16T09:51:37.445Z,100
2018-01-16T09:52:37.429Z,105
2018-01-16T09:53:36.875Z,110
2018-01-16T09:54:37.173Z,110
2018-01-16T09:55:37.130Z,110
2018-01-16T09:56:37.087Z,120
2018-01-16T09:57:37.693Z,130
2018-01-16T09:58:37.067Z,125
2018-01-16T09:59:36.774Z,135
2018-01-16T10:00:37.377Z,160
2018-01-16T10:01:37.605Z,160
2018-01-16T10:02:37.293Z,165
2018-01-16T10:03:37.018Z,175
2018-01-16T10:04:36.958Z,185
2018-01-16T10:05:36.670Z,195
2018-01-16T10:06:36.924Z,190
2018-01-16T10:07:36.965Z,185
2018-01-16T10:08:37.739Z,185
2018-01-16T10:09:36.887Z,195
2018-01-16T10:10:36.607Z,215
2018-01-16T10:11:36.567Z,205
2018-01-16T10:12:36.827Z,190
2018-01-16T10:13:37.365Z,200
2018-01-16T10:14:36.530Z,205
2018-01-16T10:15:36.779Z,200
2018-01-16T10:16:37.059Z,185
2018-01-16T10:17:37.019Z,180
2018-01-16T10:18:36.462Z,175
2018-01-16T10:19:36.735Z,180
2018-01-16T10:20:36.726Z,175
2018-01-16T10:21:36.682Z,170
2018-01-16T10:22:36.686Z,175
2018-01-16T10:23:36.440Z,200
2018-01-16T10:24:37.306Z,210
2018-01-16T10:25:36.902Z,215
2018-01-16T10:26:36.615Z,225
2018-01-16T10:27:36.608Z,250
2018-01-16T10:28:36.569Z,235
2018-01-16T10:29:36.840Z,215
2018-01-16T10:30:36.269Z,205
2018-01-16T10:31:36.796Z,185
2018-01-16T10:32:36.239Z,165
2018-01-16T10:33:36.761Z,160
2018-01-16T10:34:36.257Z,180
2018-01-16T10:35:36.469Z,170
2018-01-16T10:36:37.292Z,150
2018-01-16T10:37:36.706Z,170
2018-01-16T10:38:36.427Z,150
2018-01-16T10:39:36.673Z,185
2018-01-16T10:40:36.129Z,160
2018-01-16T10:41:36.918Z,150
2018-01-16T10:42:36.349Z,165
2018-01-16T10:43:36.359Z,195
2018-01-16T10:44:36.322Z,165
2018-01-16T10:45:36.902Z,150
2018-01-16T10:46:36.611Z,120
2018-01-16T10:47:36.820Z,140
2018-01-16T10:48:36.533Z,150
2018-01-16T10:49:36.537Z,140
2018-01-16T10:50:36.258Z,155
2018-01-16T10:51:36.217Z,160
2018-01-16T10:52:35.929Z,195
2018-01-16T10:53:36.806Z,215
2018-01-16T10:54:36.171Z,215
2018-01-16T10:55:36.434Z,215
2018-01-16T10:56:35.897Z,215
2018-01-16T10:57:35.857Z,195
2018-01-16T10:58:36.128Z,190
2018-01-16T10:59:36.128Z,175
2018-01-16T11:00:36.646Z,185
2018-01-16T11:01:35.804Z,195
2018-01-16T11:02:36.051Z,190
2018-01-16T11:03:36.032Z,185
2018-01-16T11:04:36.019Z,175
2018-01-16T11:05:36.552Z,160
2018-01-16T11:06:35.986Z,140
2018-01-16T11:07:35.991Z,120
2018-01-16T11:08:35.972Z,125
2018-01-16T11:09:36.222Z,165
2018-01-16T11:10:35.931Z,165
2018-01-16T11:11:35.908Z,165
2018-01-16T11:12:36.171Z,155
2018-01-16T11:13:35.883Z,165
2018-01-16T11:14:36.136Z,170
2018-01-16T11:15:35.575Z,135
2018-01-16T11:16:36.103Z,125
2018-01-16T11:17:35.827Z,140
2018-01-16T11:18:35.805Z,130
2018-01-16T11:19:35.538Z,110
2018-01-16T11:20:35.504Z,90
2018-01-16T11:21:36.042Z,85
2018-01-16T11:22:35.772Z,90
2018-01-16T11:23:36.289Z,110
2018-01-16T11:24:35.728Z,110
2018-01-16T11:25:35.433Z,90
2018-01-16T11:26:35.697Z,80
2018-01-16T11:27:35.687Z,75
2018-01-16T11:28:36.092Z,90
2018-01-16T11:29:36.446Z,70
2018-01-16T11:30:36.815Z,70
2018-01-16T11:31:35.730Z,85
2018-01-16T11:32:35.712Z,95
2018-01-16T11:33:35.984Z,90
2018-01-16T11:34:35.919Z,100
2018-01-16T11:35:36.298Z,85
2018-01-16T11:36:35.531Z,90
2018-01-16T11:37:35.538Z,110
2018-01-16T11:38:35.773Z,100
2018-01-16T11:39:35.752Z,105
2018-01-16T11:40:35.832Z,85
2018-01-16T11:41:35.741Z,85
2018-01-16T11:42:35.431Z,110
2018-01-16T11:43:35.160Z,130
2018-01-16T11:44:35.398Z,140
2018-01-16T11:45:35.425Z,155
2018-01-16T11:46:35.374Z,155
2018-01-16T11:47:35.357Z,205
2018-01-16T11:48:35.111Z,245
2018-01-16T11:49:35.058Z,240
2018-01-16T11:50:35.325Z,170
2018-01-16T11:51:35.304Z,135
2018-01-16T11:52:35.548Z,180
2018-01-16T11:53:35.302Z,180
2018-01-16T11:54:35.542Z,210
2018-01-16T11:55:35.247Z,195
2018-01-16T11:56:35.506Z,195
2018-01-16T11:57:35.486Z,160
2018-01-16T11:58:35.222Z,90
2018-01-16T11:59:35.447Z,80
2018-01-16T12:00:35.182Z,90
2018-01-16T12:01:35.142Z,125
2018-01-16T12:02:35.135Z,155
2018-01-16T12:03:34.850Z,155
2018-01-16T12:04:35.093Z,145
2018-01-16T12:05:35.619Z,145
2018-01-16T12:06:35.086Z,145
2018-01-16T12:07:35.051Z,140
2018-01-16T12:08:36.217Z,145
2018-01-16T12:09:35.287Z,140
2018-01-16T12:10:35.273Z,125
2018-01-16T12:11:35.005Z,130
2018-01-16T12:12:34.979Z,135
2018-01-16T12:13:34.689Z,145
2018-01-16T12:14:34.985Z,155
2018-01-16T12:15:34.927Z,160
2018-01-16T12:16:34.916Z,165
2018-01-16T12:17:34.895Z,165
2018-01-16T12:18:34.881Z,160
2018-01-16T12:19:35.418Z,110
2018-01-16T12:20:34.850Z,115
2018-01-16T12:21:35.148Z,115
2018-01-16T12:22:34.856Z,130
2018-01-16T12:23:34.544Z,160
2018-01-16T12:24:35.128Z,170
2018-01-16T12:25:35.046Z,185
2018-01-16T12:26:34.770Z,150
2018-01-16T12:27:34.782Z,150
2018-01-16T12:28:34.998Z,120
2018-01-16T12:29:35.066Z,105
2018-01-16T12:30:34.969Z,70
2018-01-16T12:31:34.696Z,70
2018-01-16T12:32:34.670Z,80
2018-01-16T12:33:34.671Z,55
2018-01-16T12:34:34.655Z,40
2018-01-16T12:35:34.627Z,40
2018-01-16T12:36:34.337Z,45
2018-01-16T12:37:34.593Z,60
2018-01-16T12:38:34.578Z,70
2018-01-16T12:39:34.288Z,65
2018-01-16T12:40:34.549Z,65
2018-01-16T12:41:34.537Z,70
2018-01-16T12:42:34.250Z,60
2018-01-16T12:43:34.781Z,55
2018-01-16T12:44:34.501Z,80
2018-01-16T12:45:34.199Z,95
2018-01-16T12:46:34.452Z,75
2018-01-16T12:47:34.732Z,80
2018-01-16T12:48:34.460Z,75
2018-01-16T12:49:34.403Z,75
2018-01-16T12:50:34.939Z,70
2018-01-16T12:51:34.397Z,100
2018-01-16T12:52:34.640Z,125
2018-01-16T12:53:34.370Z,115
2018-01-16T12:54:34.336Z,120
2018-01-16T12:55:34.599Z,80
2018-01-16T12:56:34.848Z,85
2018-01-16T12:57:34.569Z,90
2018-01-16T12:58:34.549Z,100
2018-01-16T12:59:34.251Z,125
2018-01-16T13:00:33.974Z,110
2018-01-16T13:01:34.221Z,105
2018-01-16T13:02:34.230Z,90
2018-01-16T13:03:34.194Z,90
2018-01-16T13:04:34.192Z,85
2018-01-16T13:05:34.449Z,100
2018-01-16T13:06:34.233Z,100
2018-01-16T13:07:34.136Z,105
2018-01-16T13:08:34.114Z,75
2018-01-16T13:09:34.101Z,60
2018-01-16T13:10:33.817Z,45
2018-01-16T13:11:34.344Z,60
2018-01-16T13:12:33.781Z,70
2018-01-16T13:13:34.322Z,55
2018-01-16T13:14:34.304Z,65
2018-01-16T13:15:34.011Z,65
2018-01-16T13:16:33.987Z,75
2018-01-16T13:17:34.026Z,55
2018-01-16T13:18:33.979Z,65
2018-01-16T13:19:34.219Z,50
2018-01-16T13:20:33.655Z,80
2018-01-16T13:21:34.488Z,80
2018-01-16T13:22:33.902Z,80
2018-01-16T13:23:33.905Z,95
2018-01-16T13:24:33.868Z,125
2018-01-16T13:25:33.854Z,175
2018-01-16T13:26:33.867Z,170
2018-01-16T13:27:34.128Z,145
2018-01-16T13:28:33.537Z,110
2018-01-16T13:29:33.818Z,110
2018-01-16T13:30:33.518Z,165
2018-01-16T13:31:33.486Z,200
2018-01-16T13:32:33.474Z,185
2018-01-16T13:33:34.030Z,115
2018-01-16T13:34:33.727Z,85
2018-01-16T13:35:33.699Z,75
2018-01-16T13:36:33.709Z,85
2018-01-16T13:37:33.933Z,85
2018-01-16T13:38:33.686Z,115
2018-01-16T13:39:33.365Z,155
2018-01-16T13:40:33.914Z,170
2018-01-16T13:41:33.628Z,175
2018-01-16T13:42:33.923Z,225
2018-01-16T13:43:33.305Z,230
2018-01-16T13:44:33.834Z,195
2018-01-16T13:45:33.275Z,180
2018-01-16T13:46:33.841Z,130
2018-01-16T13:47:33.510Z,130
2018-01-16T13:48:33.252Z,115
2018-01-16T13:49:33.485Z,140
2018-01-16T13:50:34.020Z,130
2018-01-16T13:51:33.999Z,90
2018-01-16T13:52:33.714Z,110
2018-01-16T13:53:33.709Z,80
2018-01-16T13:54:33.953Z,70
2018-01-16T13:55:33.139Z,80
2018-01-16T13:56:33.392Z,85
2018-01-16T13:57:33.633Z,70
2018-01-16T13:58:33.908Z,75
2018-01-16T13:59:33.341Z,95
2018-01-16T14:00:33.345Z,120
2018-01-16T14:01:33.601Z,130
2018-01-16T14:02:33.567Z,110
2018-01-16T14:03:33.268Z,105
2018-01-16T14:04:33.532Z,105
2018-01-16T14:05:33.514Z,115
2018-01-16T14:06:33.246Z,95
2018-01-16T14:07:32.951Z,80
2018-01-16T14:08:33.202Z,85
2018-01-16T14:09:32.923Z,75
2018-01-16T14:10:33.437Z,80
2018-01-16T14:11:32.904Z,75
2018-01-16T14:12:33.684Z,65
2018-01-16T14:13:33.124Z,75
2018-01-16T14:14:32.848Z,70
2018-01-16T14:15:33.362Z,55
2018-01-16T14:16:33.077Z,50
2018-01-16T14:17:33.067Z,40
2018-01-16T14:18:33.581Z,40
2018-01-16T14:19:32.758Z,40
2018-01-16T14:20:33.016Z,50
2018-01-16T14:21:33.567Z,55
2018-01-16T14:22:33.257Z,55
2018-01-16T14:23:32.695Z,50
2018-01-16T14:24:32.701Z,35